Pagina principale
METAR-TAF:

METAR-TAF

Aeroporti :

RAF Fairford

Fairford, Inghilterra

latitudine: 51-41N, longitudine: 001-47W, altezza: 87 m

Osservazione

Il bollettino è stato emesso 14 minuti fa, alle 16:54 UTC
Vento 11 kt da est
Temperature 23°C
Umidità 31%
Pressione 1021 hPa
Visibilità 10 km o più
Cielo sereno

METAR: EGVA 311654Z AUTO 10011KT 9999 CLR 23/05 A3015 RMK AO2 WSHFT 47 SLP211 $

Ora: 18:08 (17:08 UTC)


TAF: mancante

Osservazioni e previsioni meteorologiche di più di 4000 aeroporti (messaggi METAR e TAF).

Le stazioni disponibili sono rappresentate dai dischi gialli e rossi sulla carta.

Puntare il mouse per vedere il nome della stazione.

Clicca sopra per visualizzare le osservazioni e previsioni meteorologiche.

Per cambiare la mappa : fare clic sui pulsanti verdi con una croce nera per ingrandire, il pulsante verde con un trattino per diminuire, o sulla freccia verde per le mappe adiacenti.


METAR-TAF: